createdAt,value
2022-09-19T00:00:35.330Z,4.14
2022-09-19T00:03:05.339Z,4.16
2022-09-19T00:05:34.816Z,4.25
2022-09-19T00:08:04.675Z,4.28
2022-09-19T00:10:38.568Z,4.27
2022-09-19T00:13:08.481Z,4.28
2022-09-19T00:15:47.895Z,4.31
2022-09-19T00:18:17.592Z,4.12
2022-09-19T00:20:49.231Z,4.03
2022-09-19T00:23:36.606Z,3.97
2022-09-19T00:26:11.925Z,3.92
2022-09-19T00:28:41.577Z,3.99
2022-09-19T00:31:19.105Z,4.15
2022-09-19T00:33:50.326Z,4.22
2022-09-19T00:36:21.431Z,4.21
2022-09-19T00:38:51.336Z,4.25
2022-09-19T00:41:23.469Z,4.24
2022-09-19T00:43:55.238Z,4.02
2022-09-19T00:46:29.192Z,3.95
2022-09-19T00:52:05.535Z,4.05
2022-09-19T00:54:41.952Z,3.96
2022-09-19T00:57:15.156Z,3.99
2022-09-19T00:59:49.968Z,4.06
2022-09-19T01:02:23.887Z,4.13
2022-09-19T01:04:53.215Z,4.05
2022-09-19T01:07:36.946Z,3.90
2022-09-19T01:10:15.888Z,3.98
2022-09-19T01:12:57.094Z,3.94
2022-09-19T01:15:41.144Z,3.96
2022-09-19T01:18:12.048Z,3.94
2022-09-19T01:21:33.486Z,3.97
2022-09-19T01:24:43.619Z,3.83
2022-09-19T01:27:56.164Z,3.89
2022-09-19T01:30:26.983Z,3.87
2022-09-19T01:33:02.455Z,3.78
2022-09-19T01:35:34.783Z,3.84
2022-09-19T01:38:08.468Z,3.89
2022-09-19T01:40:40.311Z,3.79
2022-09-19T01:43:16.351Z,3.75
2022-09-19T01:45:46.984Z,3.85
2022-09-19T01:48:22.781Z,3.86
2022-09-19T01:51:23.055Z,3.83
2022-09-19T01:54:18.288Z,3.85
2022-09-19T01:56:59.534Z,3.84
2022-09-19T01:59:48.765Z,3.83
2022-09-19T02:02:30.417Z,3.78
2022-09-19T02:05:07.262Z,3.71
2022-09-19T02:07:46.307Z,3.62
2022-09-19T02:10:24.570Z,3.57
2022-09-19T02:12:59.924Z,3.55
2022-09-19T02:15:34.079Z,3.52
2022-09-19T02:18:10.241Z,3.55
2022-09-19T02:20:46.438Z,3.54
2022-09-19T02:23:23.985Z,3.55
2022-09-19T02:25:57.007Z,3.46
2022-09-19T02:28:32.370Z,3.46
2022-09-19T02:31:04.266Z,3.51
2022-09-19T02:33:37.303Z,3.56
2022-09-19T02:36:16.831Z,3.48
2022-09-19T02:38:54.790Z,3.30
2022-09-19T02:41:32.256Z,3.30
2022-09-19T02:44:14.624Z,3.15
2022-09-19T02:46:56.167Z,2.80
2022-09-19T02:49:40.268Z,2.88
2022-09-19T02:52:16.891Z,2.94
2022-09-19T02:54:51.415Z,2.93
2022-09-19T02:57:24.167Z,3.07
2022-09-19T02:59:56.689Z,3.13
2022-09-19T03:02:31.444Z,3.22
2022-09-19T03:05:07.284Z,3.22
2022-09-19T03:07:41.667Z,3.21
2022-09-19T03:10:14.886Z,3.23
2022-09-19T03:12:51.745Z,3.20
2022-09-19T03:15:24.888Z,3.21
2022-09-19T03:17:57.299Z,2.98
2022-09-19T03:20:26.747Z,3.04
2022-09-19T03:22:56.577Z,3.04
2022-09-19T03:25:27.017Z,2.97
2022-09-19T03:27:57.288Z,3.00
2022-09-19T03:30:27.046Z,2.85
2022-09-19T03:32:58.295Z,2.70
2022-09-19T03:35:27.691Z,2.86
2022-09-19T03:37:57.067Z,2.96
2022-09-19T03:40:26.665Z,3.00
2022-09-19T03:42:56.800Z,2.97
2022-09-19T03:45:26.222Z,2.91
2022-09-19T03:47:57.672Z,2.85
2022-09-19T03:53:13.473Z,2.80
2022-09-19T03:55:42.975Z,2.82
2022-09-19T03:58:12.825Z,2.88
2022-09-19T04:00:42.469Z,2.85
2022-09-19T04:03:12.112Z,2.94
2022-09-19T04:05:41.493Z,2.95
2022-09-19T04:08:12.268Z,3.00
2022-09-19T04:10:43.664Z,2.92
2022-09-19T04:13:13.110Z,2.88
2022-09-19T04:15:43.425Z,2.97
2022-09-19T04:18:12.856Z,2.98
2022-09-19T04:20:42.220Z,2.95
2022-09-19T04:23:17.904Z,2.96
2022-09-19T04:25:47.986Z,2.92
2022-09-19T04:28:19.762Z,2.96
2022-09-19T04:30:49.368Z,2.94
2022-09-19T04:33:19.607Z,2.96
2022-09-19T04:35:49.087Z,3.01
2022-09-19T04:38:21.924Z,3.06
2022-09-19T04:40:58.325Z,3.10
2022-09-19T04:43:29.350Z,3.10
2022-09-19T04:45:59.803Z,3.10
2022-09-19T04:48:29.224Z,3.11
2022-09-19T04:50:59.165Z,3.10
2022-09-19T04:53:33.875Z,3.15
2022-09-19T04:56:03.655Z,3.15
2022-09-19T04:58:33.267Z,3.20
2022-09-19T05:01:02.594Z,3.32
2022-09-19T05:03:32.006Z,3.45
2022-09-19T05:06:01.378Z,3.62
2022-09-19T05:08:35.081Z,3.75
2022-09-19T05:11:07.762Z,3.91
2022-09-19T05:13:40.476Z,4.16
2022-09-19T05:16:11.424Z,4.36
2022-09-19T05:18:40.888Z,4.55
2022-09-19T05:21:14.572Z,4.76
2022-09-19T05:23:45.698Z,5.01
2022-09-19T05:26:17.708Z,5.22
2022-09-19T05:28:47.790Z,5.46
2022-09-19T05:31:19.656Z,5.70
2022-09-19T05:33:49.223Z,5.91
2022-09-19T05:36:19.714Z,6.11
2022-09-19T05:38:50.813Z,6.32
2022-09-19T05:41:20.182Z,6.53
2022-09-19T05:43:49.599Z,6.71
2022-09-19T05:46:19.211Z,6.97
2022-09-19T05:48:50.659Z,7.18
2022-09-19T05:51:20.155Z,7.39
2022-09-19T05:53:56.482Z,7.58
2022-09-19T05:56:26.205Z,7.82
2022-09-19T05:58:56.327Z,8.05
2022-09-19T06:01:25.807Z,8.27
2022-09-19T06:03:55.421Z,8.50
2022-09-19T06:06:25.206Z,8.76
2022-09-19T06:09:00.567Z,8.99
2022-09-19T06:11:30.394Z,9.24
2022-09-19T06:14:23.678Z,9.46
2022-09-19T06:16:53.447Z,9.75
2022-09-19T06:19:22.948Z,9.97
2022-09-19T06:21:52.632Z,10.18
2022-09-19T06:24:23.446Z,10.41
2022-09-19T06:26:56.903Z,10.69
2022-09-19T06:29:26.436Z,10.93
2022-09-19T06:31:55.954Z,11.16
2022-09-19T06:34:37.930Z,11.40
2022-09-19T06:37:15.200Z,11.63
2022-09-19T06:39:46.050Z,11.86
2022-09-19T06:42:15.475Z,12.00
2022-09-19T06:44:44.735Z,12.21
2022-09-19T06:47:14.742Z,12.42
2022-09-19T06:53:02.087Z,12.86
2022-09-19T06:55:31.867Z,13.03
2022-09-19T06:58:03.870Z,13.20
2022-09-19T07:00:37.754Z,13.34
2022-09-19T07:03:09.865Z,13.48
2022-09-19T07:05:43.669Z,13.70
2022-09-19T07:08:15.134Z,13.89
2022-09-19T07:10:45.057Z,14.09
2022-09-19T07:13:17.924Z,14.24
2022-09-19T07:15:48.036Z,14.31
2022-09-19T07:18:17.323Z,14.51
2022-09-19T07:20:46.531Z,14.72
2022-09-19T07:23:20.168Z,14.94
2022-09-19T07:25:50.411Z,15.01
2022-09-19T07:28:21.910Z,15.11
2022-09-19T07:30:54.774Z,15.15
2022-09-19T07:33:25.091Z,15.32
2022-09-19T07:35:57.200Z,15.42
2022-09-19T07:38:29.546Z,15.63
2022-09-19T07:41:01.319Z,15.75
2022-09-19T07:43:31.127Z,15.79
2022-09-19T07:46:00.462Z,16.01
2022-09-19T07:48:29.944Z,16.18
2022-09-19T07:51:03.345Z,16.31
2022-09-19T07:53:34.147Z,16.35
2022-09-19T07:56:05.735Z,16.44
2022-09-19T07:58:35.543Z,16.61
2022-09-19T08:01:05.909Z,16.74
2022-09-19T08:03:35.408Z,16.76
2022-09-19T08:06:04.783Z,16.81
2022-09-19T08:08:38.506Z,16.74
2022-09-19T08:11:08.028Z,16.87
2022-09-19T08:13:37.344Z,16.92
2022-09-19T08:16:07.550Z,16.92
2022-09-19T08:18:37.809Z,16.98
2022-09-19T08:21:07.643Z,17.00
2022-09-19T08:23:42.298Z,17.03
2022-09-19T08:26:12.036Z,17.19
2022-09-19T08:28:41.598Z,17.40
2022-09-19T08:31:11.113Z,17.44
2022-09-19T08:33:40.512Z,17.28
2022-09-19T08:36:11.237Z,17.32
2022-09-19T08:38:42.209Z,17.21
2022-09-19T08:41:41.084Z,17.16
2022-09-19T08:44:17.702Z,17.45
2022-09-19T08:46:57.449Z,17.60
2022-09-19T08:49:32.973Z,17.75
2022-09-19T08:52:07.609Z,17.82
2022-09-19T08:54:42.836Z,17.82
2022-09-19T08:57:21.002Z,17.84
2022-09-19T08:59:53.672Z,17.96
2022-09-19T09:03:03.127Z,18.00
2022-09-19T09:05:47.888Z,17.85
2022-09-19T09:08:35.114Z,17.99
2022-09-19T09:11:23.609Z,17.78
2022-09-19T09:14:02.737Z,17.72
2022-09-19T09:16:46.256Z,17.84
2022-09-19T09:19:48.923Z,17.97
2022-09-19T09:22:27.370Z,18.13
2022-09-19T09:25:03.501Z,18.03
2022-09-19T09:27:44.232Z,18.13
2022-09-19T09:30:19.071Z,18.19
2022-09-19T09:32:57.848Z,18.14
2022-09-19T09:35:36.328Z,18.09
2022-09-19T09:38:14.587Z,18.05
2022-09-19T09:41:09.306Z,18.11
2022-09-19T09:43:51.887Z,18.34
2022-09-19T09:46:34.655Z,18.44
2022-09-19T09:49:03.929Z,18.41
2022-09-19T09:53:12.174Z,18.50
2022-09-19T09:56:10.189Z,18.44
2022-09-19T09:58:59.956Z,18.36
2022-09-19T10:01:55.674Z,18.46
2022-09-19T10:04:35.267Z,18.61
2022-09-19T10:07:17.367Z,18.70
2022-09-19T10:09:54.687Z,18.71
2022-09-19T10:15:22.925Z,18.52
2022-09-19T10:17:58.748Z,18.56
2022-09-19T10:20:40.922Z,18.59
2022-09-19T10:23:17.370Z,18.11
2022-09-19T10:25:52.832Z,18.05
2022-09-19T10:28:29.669Z,18.28
2022-09-19T10:31:02.306Z,18.40
2022-09-19T10:33:43.605Z,18.32
2022-09-19T10:36:23.124Z,18.32
2022-09-19T10:39:00.209Z,18.23
2022-09-19T10:41:34.229Z,18.41
2022-09-19T10:44:08.132Z,18.74
2022-09-19T10:46:45.892Z,18.97
2022-09-19T10:49:23.034Z,19.00
2022-09-19T10:51:54.756Z,18.88
2022-09-19T10:54:34.057Z,18.92
2022-09-19T10:57:06.464Z,19.16
2022-09-19T10:59:39.695Z,19.28
2022-09-19T11:02:24.241Z,19.27
2022-09-19T11:05:04.294Z,19.00
2022-09-19T11:07:35.931Z,19.03
2022-09-19T11:10:11.382Z,19.13
2022-09-19T11:12:42.994Z,19.25
2022-09-19T11:15:18.281Z,19.21
2022-09-19T11:18:03.830Z,19.30
2022-09-19T11:20:47.830Z,19.65
2022-09-19T11:23:53.679Z,19.85
2022-09-19T11:26:36.749Z,19.99
2022-09-19T11:29:39.974Z,20.18
2022-09-19T11:35:29.545Z,20.16
2022-09-19T11:41:28.882Z,20.07
2022-09-19T11:44:44.407Z,19.98
2022-09-19T11:47:52.380Z,20.23
2022-09-19T11:50:51.669Z,20.48
2022-09-19T11:53:52.930Z,20.57
2022-09-19T11:56:59.822Z,20.61
2022-09-19T11:59:57.096Z,20.65
2022-09-19T12:02:57.641Z,20.79
2022-09-19T12:05:42.198Z,20.96
2022-09-19T12:08:40.186Z,20.96
2022-09-19T12:11:16.537Z,20.74
2022-09-19T12:13:57.436Z,20.80
2022-09-19T12:16:38.068Z,20.80
2022-09-19T12:19:14.864Z,20.95
2022-09-19T12:21:52.101Z,21.10
2022-09-19T12:24:47.492Z,21.08
2022-09-19T12:27:23.047Z,20.98
2022-09-19T12:30:00.572Z,20.72
2022-09-19T12:32:42.600Z,20.55
2022-09-19T12:35:24.044Z,20.62
2022-09-19T12:38:09.748Z,20.71
2022-09-19T12:40:50.016Z,20.74
2022-09-19T12:43:35.173Z,20.48
2022-09-19T12:46:17.181Z,19.90
2022-09-19T12:49:02.794Z,19.60
2022-09-19T12:53:15.037Z,19.23
2022-09-19T12:55:59.697Z,19.13
2022-09-19T12:58:35.359Z,18.84
2022-09-19T13:01:18.216Z,18.65
2022-09-19T13:03:54.995Z,18.61
2022-09-19T13:06:28.060Z,18.47
2022-09-19T13:09:06.239Z,18.40
2022-09-19T13:11:42.661Z,18.28
2022-09-19T13:14:19.912Z,17.98
2022-09-19T13:17:06.924Z,17.92
2022-09-19T13:19:58.869Z,17.84
2022-09-19T13:22:46.320Z,17.70
2022-09-19T13:25:21.736Z,17.52
2022-09-19T13:28:35.684Z,17.42
2022-09-19T13:31:17.118Z,17.34
2022-09-19T13:33:54.954Z,17.28
2022-09-19T13:36:45.344Z,17.41
2022-09-19T13:39:48.535Z,17.46
2022-09-19T13:42:27.968Z,17.37
2022-09-19T13:45:27.289Z,17.15
2022-09-19T13:48:05.968Z,17.13
2022-09-19T13:50:45.912Z,16.98
2022-09-19T13:53:34.828Z,16.66
2022-09-19T13:56:07.061Z,16.60
2022-09-19T13:58:40.794Z,16.42
2022-09-19T14:01:23.260Z,16.01
2022-09-19T14:03:57.659Z,15.82
2022-09-19T14:06:33.073Z,15.72
2022-09-19T14:13:01.084Z,15.74
2022-09-19T14:16:34.541Z,15.68
2022-09-19T14:19:04.189Z,15.69
2022-09-19T14:21:58.578Z,15.62
2022-09-19T14:24:52.045Z,15.56
2022-09-19T14:28:01.606Z,15.52
2022-09-19T14:31:07.981Z,15.57
2022-09-19T14:34:36.513Z,15.48
2022-09-19T14:37:47.390Z,15.29
2022-09-19T14:40:38.925Z,15.19
2022-09-19T14:43:50.777Z,15.06
2022-09-19T14:46:40.853Z,14.88
2022-09-19T14:49:21.210Z,14.66
2022-09-19T14:51:59.767Z,14.58
2022-09-19T14:54:36.869Z,14.45
2022-09-19T14:57:14.778Z,14.36
2022-09-19T14:59:44.269Z,14.19
2022-09-19T15:02:24.748Z,14.08
2022-09-19T15:05:02.195Z,14.00
2022-09-19T15:07:33.767Z,13.97
2022-09-19T15:10:03.312Z,13.89
2022-09-19T15:12:36.875Z,13.84
2022-09-19T15:15:08.010Z,13.79
2022-09-19T15:17:39.523Z,13.70
2022-09-19T15:20:17.346Z,13.66
2022-09-19T15:22:53.735Z,13.57
2022-09-19T15:25:27.028Z,13.44
2022-09-19T15:28:00.360Z,13.37
2022-09-19T15:30:32.390Z,13.32
2022-09-19T15:33:05.561Z,13.24
2022-09-19T15:35:42.170Z,13.15
2022-09-19T15:38:19.645Z,13.08
2022-09-19T15:40:49.505Z,13.06
2022-09-19T15:43:20.016Z,13.03
2022-09-19T15:45:50.957Z,12.93
2022-09-19T15:48:26.097Z,12.77
2022-09-19T15:53:02.209Z,12.63
2022-09-19T15:55:32.597Z,12.49
2022-09-19T15:58:04.611Z,12.29
2022-09-19T16:00:45.429Z,12.14
2022-09-19T16:03:24.264Z,11.99
2022-09-19T16:06:30.757Z,11.89
2022-09-19T16:09:08.826Z,11.53
2022-09-19T16:11:44.647Z,11.38
2022-09-19T16:14:27.326Z,11.34
2022-09-19T16:16:57.310Z,11.36
2022-09-19T16:19:46.566Z,11.33
2022-09-19T16:22:21.579Z,11.23
2022-09-19T16:24:55.410Z,11.16
2022-09-19T16:27:32.523Z,11.11
2022-09-19T16:30:05.466Z,10.95
2022-09-19T16:32:35.522Z,10.63
2022-09-19T16:35:06.580Z,10.39
2022-09-19T16:37:40.153Z,10.34
2022-09-19T16:40:25.922Z,10.44
2022-09-19T16:42:55.462Z,10.24
2022-09-19T16:45:25.843Z,9.95
2022-09-19T16:47:55.367Z,9.78
2022-09-19T16:50:28.279Z,9.67
2022-09-19T16:52:58.145Z,9.72
2022-09-19T16:55:42.586Z,9.64
2022-09-19T16:58:15.504Z,9.34
2022-09-19T17:00:46.767Z,9.17
2022-09-19T17:03:17.614Z,9.00
2022-09-19T17:05:47.093Z,8.94
2022-09-19T17:08:16.585Z,8.88
2022-09-19T17:10:48.534Z,8.80
2022-09-19T17:13:17.915Z,8.68
2022-09-19T17:15:53.605Z,8.49
2022-09-19T17:18:25.517Z,8.26
2022-09-19T17:20:57.364Z,8.15
2022-09-19T17:23:29.625Z,8.07
2022-09-19T17:26:01.445Z,8.14
2022-09-19T17:28:32.008Z,8.38
2022-09-19T17:31:02.518Z,8.41
2022-09-19T17:33:32.928Z,8.29
2022-09-19T17:36:02.704Z,8.43
2022-09-19T17:38:34.969Z,8.53
2022-09-19T17:41:06.115Z,8.50
2022-09-19T17:43:35.502Z,8.47
2022-09-19T17:46:07.743Z,8.51
2022-09-19T17:48:40.812Z,8.40
2022-09-19T17:51:11.835Z,8.18
2022-09-19T17:53:43.208Z,8.15
2022-09-19T17:56:20.782Z,8.19
2022-09-19T17:58:51.228Z,8.08
2022-09-19T18:01:38.844Z,8.04
2022-09-19T18:04:09.231Z,7.98
2022-09-19T18:06:38.894Z,8.08
2022-09-19T18:09:11.671Z,7.95
2022-09-19T18:11:43.326Z,7.87
2022-09-19T18:14:17.725Z,7.66
2022-09-19T18:16:48.459Z,7.72
2022-09-19T18:19:17.976Z,7.80
2022-09-19T18:21:49.133Z,7.74
2022-09-19T18:24:18.875Z,7.65
2022-09-19T18:26:49.961Z,7.70
2022-09-19T18:29:19.833Z,7.76
2022-09-19T18:31:49.314Z,7.67
2022-09-19T18:34:18.678Z,7.52
2022-09-19T18:36:48.366Z,7.56
2022-09-19T18:39:17.720Z,7.63
2022-09-19T18:41:48.536Z,7.66
2022-09-19T18:44:17.860Z,7.73
2022-09-19T18:46:48.592Z,7.67
2022-09-19T18:49:18.492Z,7.65
2022-09-19T18:53:01.149Z,7.65
2022-09-19T18:55:30.399Z,7.52
2022-09-19T18:57:59.820Z,7.49
2022-09-19T19:00:29.230Z,7.45
2022-09-19T19:02:59.719Z,7.48
2022-09-19T19:05:29.086Z,7.48
2022-09-19T19:07:59.811Z,7.48
2022-09-19T19:10:29.150Z,7.51
2022-09-19T19:12:58.533Z,7.49
2022-09-19T19:15:27.922Z,7.42
2022-09-19T19:17:57.213Z,7.35
2022-09-19T19:20:26.491Z,7.40
2022-09-19T19:23:05.989Z,7.39
2022-09-19T19:25:36.757Z,7.28
2022-09-19T19:28:06.179Z,7.26
2022-09-19T19:30:35.673Z,7.28
2022-09-19T19:33:05.098Z,7.24
2022-09-19T19:35:34.538Z,7.18
2022-09-19T19:38:05.031Z,7.14
2022-09-19T19:40:35.925Z,6.91
2022-09-19T19:43:05.375Z,6.95
2022-09-19T19:45:36.630Z,6.85
2022-09-19T19:48:05.909Z,6.76
2022-09-19T19:50:35.147Z,6.48
2022-09-19T19:53:04.531Z,6.33
2022-09-19T19:55:36.451Z,6.41
2022-09-19T19:58:05.996Z,6.41
2022-09-19T20:00:37.862Z,6.43
2022-09-19T20:03:07.379Z,6.55
2022-09-19T20:05:36.824Z,6.48
2022-09-19T20:08:06.248Z,6.45
2022-09-19T20:10:37.102Z,6.50
2022-09-19T20:13:06.394Z,6.41
2022-09-19T20:15:35.714Z,6.32
2022-09-19T20:18:06.159Z,6.18
2022-09-19T20:20:40.259Z,6.22
2022-09-19T20:23:09.621Z,6.33
2022-09-19T20:25:46.890Z,6.23
2022-09-19T20:28:16.451Z,6.34
2022-09-19T20:30:46.856Z,6.27
2022-09-19T20:33:18.566Z,6.31
2022-09-19T20:35:48.130Z,6.41
2022-09-19T20:38:18.278Z,6.47
2022-09-19T20:40:49.100Z,6.54
2022-09-19T20:43:19.869Z,6.44
2022-09-19T20:45:57.016Z,6.59
2022-09-19T20:48:27.465Z,6.72
2022-09-19T20:50:58.908Z,6.70
2022-09-19T20:53:33.229Z,6.86
2022-09-19T20:56:07.711Z,7.02
2022-09-19T20:58:37.555Z,6.93
2022-09-19T21:01:10.751Z,6.91
2022-09-19T21:03:41.270Z,7.16
2022-09-19T21:06:13.089Z,7.57
2022-09-19T21:08:42.907Z,7.48
2022-09-19T21:11:16.452Z,7.51
2022-09-19T21:13:48.780Z,7.34
2022-09-19T21:16:20.416Z,7.37
2022-09-19T21:18:52.502Z,7.53
2022-09-19T21:21:24.998Z,7.59
2022-09-19T21:23:55.907Z,7.57
2022-09-19T21:26:30.133Z,8.04
2022-09-19T21:29:01.956Z,8.16
2022-09-19T21:31:34.150Z,8.03
2022-09-19T21:34:06.736Z,7.89
2022-09-19T21:36:37.796Z,8.13
2022-09-19T21:39:09.588Z,8.08
2022-09-19T21:41:42.166Z,7.98
2022-09-19T21:44:11.836Z,7.83
2022-09-19T21:46:41.319Z,7.75
2022-09-19T21:49:11.353Z,7.62
2022-09-19T21:53:00.910Z,7.56
2022-09-19T21:55:30.204Z,7.47
2022-09-19T21:57:59.527Z,7.49
2022-09-19T22:00:29.055Z,7.50
2022-09-19T22:02:58.490Z,7.49
2022-09-19T22:05:27.866Z,7.47
2022-09-19T22:07:57.384Z,7.52
2022-09-19T22:10:28.133Z,7.57
2022-09-19T22:12:57.771Z,7.59
2022-09-19T22:15:27.191Z,7.51
2022-09-19T22:17:56.643Z,7.48
2022-09-19T22:20:26.412Z,7.45
2022-09-19T22:22:55.860Z,7.48
2022-09-19T22:25:26.726Z,7.46
2022-09-19T22:27:55.944Z,7.47
2022-09-19T22:30:25.442Z,7.53
2022-09-19T22:32:54.818Z,7.57
2022-09-19T22:35:24.566Z,7.60
2022-09-19T22:37:53.878Z,7.50
2022-09-19T22:40:24.414Z,7.46
2022-09-19T22:42:55.687Z,7.56
2022-09-19T22:45:25.096Z,7.64
2022-09-19T22:47:55.519Z,7.60
2022-09-19T22:50:24.888Z,7.69
2022-09-19T22:52:54.371Z,7.84
2022-09-19T22:55:23.741Z,7.96
2022-09-19T22:57:55.667Z,7.96
2022-09-19T23:00:24.911Z,7.97
2022-09-19T23:02:54.550Z,7.97
2022-09-19T23:05:23.933Z,8.03
2022-09-19T23:07:53.557Z,8.08
2022-09-19T23:10:24.815Z,8.14
2022-09-19T23:13:15.732Z,8.13
2022-09-19T23:15:45.219Z,8.15
2022-09-19T23:18:14.741Z,8.17
2022-09-19T23:20:44.061Z,8.18
2022-09-19T23:23:13.411Z,8.17
2022-09-19T23:25:42.905Z,8.17
2022-09-19T23:28:13.798Z,8.17
2022-09-19T23:30:43.220Z,8.19
2022-09-19T23:33:12.587Z,8.23
2022-09-19T23:35:41.986Z,8.31
2022-09-19T23:38:11.456Z,8.38
2022-09-19T23:40:41.446Z,8.42
2022-09-19T23:43:10.855Z,8.50
2022-09-19T23:45:41.845Z,8.66
2022-09-19T23:48:11.163Z,8.70
2022-09-19T23:50:40.532Z,8.73
2022-09-19T23:53:09.877Z,8.77
2022-09-19T23:55:39.632Z,8.76
2022-09-19T23:58:09.029Z,8.78
